Time;durP1;ratioP1;P1;durP2;ratioP2;P2;SDS_P1;SDS_P2;PMS_P1;PMS_P2;Temp;Humidity;BMP_temperature;BMP_pressure;BME280_temperature;BME280_humidity;BME280_pressure;Samples;Min_cycle;Max_cycle;Signal;HPM_P1;HPM_P2
2022/09/29 00:00:23;;;;;;;5.07;4.60;;;;;;;6.28;100.00;99376.94;6069639;23;20023;-73
2022/09/29 00:02:50;;;;;;;5.05;4.65;;;;;;;6.61;100.00;99436.75;6119539;23;20747;-73
2022/09/29 00:05:16;;;;;;;5.15;4.80;;;;;;;6.59;100.00;99436.00;6095775;23;20016;-72
2022/09/29 00:07:43;;;;;;;4.55;4.15;;;;;;;5.29;100.00;99249.50;6119677;23;20025;-72
2022/09/29 00:10:09;;;;;;;5.22;4.85;;;;;;;6.74;100.00;99481.22;6117405;23;20505;-74
2022/09/29 00:12:36;;;;;;;4.25;4.05;;;;;;;6.82;100.00;99501.66;6154509;23;20043;-72
2022/09/29 00:15:03;;;;;;;4.95;4.55;;;;;;;6.14;100.00;99401.16;6122962;23;20093;-74
2022/09/29 00:17:30;;;;;;;4.07;3.88;;;;;;;6.72;100.00;99507.38;6154961;23;20064;-73
2022/09/29 00:19:56;;;;;;;4.03;3.80;;;;;;;5.41;100.00;99287.00;6123262;23;20104;-74
2022/09/29 00:22:23;;;;;;;5.00;4.70;;;;;;;6.32;100.00;99436.59;6149976;23;20401;-72
2022/09/29 00:24:49;;;;;;;4.28;4.07;;;;;;;6.02;100.00;99400.03;6125587;23;20277;-73
2022/09/29 00:27:17;;;;;;;4.57;4.28;;;;;;;5.83;100.00;99368.91;6153278;23;20681;-73
2022/09/29 00:29:43;;;;;;;4.70;4.40;;;;;;;6.20;100.00;99439.88;6124093;23;20025;-73
2022/09/29 00:32:10;;;;;;;5.30;4.82;;;;;;;5.53;100.00;99332.34;6151994;23;20028;-72
2022/09/29 00:34:36;;;;;;;4.13;3.92;;;;;;;6.48;100.00;99495.72;6119693;23;20033;-73
2022/09/29 00:37:03;;;;;;;4.78;4.47;;;;;;;5.66;100.00;99364.63;6151525;23;20025;-73
2022/09/29 00:39:30;;;;;;;4.65;4.43;;;;;;;5.94;100.00;99429.06;6121569;23;20407;-73
2022/09/29 00:41:56;;;;;;;5.15;4.90;;;;;;;5.05;100.00;99289.78;6153045;23;20021;-74
2022/09/29 00:44:57;;;;;;;5.25;4.80;;;;;;;6.26;100.00;99496.84;6097766;23;20029;-73
2022/09/29 00:47:24;;;;;;;4.38;4.18;;;;;;;6.04;100.00;99491.13;6151011;23;20029;-73
2022/09/29 00:49:57;;;;;;;4.05;3.85;;;;;;;4.78;100.00;99280.75;6121335;23;20055;-73
2022/09/29 00:52:30;;;;;;;4.53;4.28;;;;;;;5.24;100.00;99365.94;6154056;23;20025;-73
2022/09/29 00:55:08;;;;;;;4.10;3.90;;;;;;;5.99;100.00;99493.94;6110553;23;20450;-74
2022/09/29 00:57:45;;;;;;;3.75;3.60;;;;;;;5.65;100.00;99464.44;6156936;23;20012;-73
2022/09/29 01:00:13;;;;;;;4.05;3.85;;;;;;;4.98;100.00;99349.91;6121834;23;20162;-73
2022/09/29 01:02:45;;;;;;;3.90;3.70;;;;;;;5.73;100.00;99482.25;6156798;23;20666;-74
2022/09/29 01:05:17;;;;;;;3.83;3.63;;;;;;;5.37;100.00;99428.56;6129997;23;20018;-74
2022/09/29 01:07:45;;;;;;;4.20;4.00;;;;;;;5.14;100.00;99407.19;6158364;23;20564;-73
2022/09/29 01:10:15;;;;;;;4.20;4.00;;;;;;;4.77;100.00;99346.66;6126807;23;20029;-73
2022/09/29 01:12:45;;;;;;;4.57;4.20;;;;;;;4.45;100.00;99303.22;6099015;23;20021;-73
2022/09/29 01:15:18;;;;;;;4.35;4.15;;;;;;;5.28;100.00;99431.66;6132200;23;20029;-74
2022/09/29 01:17:46;;;;;;;4.00;3.80;;;;;;;4.95;100.00;99402.09;6122183;23;20021;-73
2022/09/29 01:20:17;;;;;;;4.18;3.97;;;;;;;4.65;100.00;99346.41;6158600;23;20033;-73
2022/09/29 01:23:17;;;;;;;4.43;4.15;;;;;;;5.38;100.00;99462.31;6127692;23;20092;-72
2022/09/29 01:26:01;;;;;;;3.83;3.63;;;;;;;5.50;100.00;99496.47;6149322;23;20070;-72
2022/09/29 01:28:37;;;;;;;4.00;3.70;;;;;;;5.45;100.00;99501.03;6128004;23;20445;-73
2022/09/29 01:31:24;;;;;;;4.18;3.92;;;;;;;4.72;100.00;99404.97;6154702;23;20020;-73
2022/09/29 01:33:59;;;;;;;4.07;3.88;;;;;;;5.36;100.00;99507.56;6114742;23;20086;-72
2022/09/29 01:36:53;;;;;;;3.85;3.65;;;;;;;5.32;100.00;99506.03;6153569;23;20028;-73
2022/09/29 01:39:26;;;;;;;;;;;;;;;5.30;100.00;99515.66;6125514;23;20014;-72
2022/09/29 01:41:58;;;;;;;4.32;4.13;;;;;;;4.39;100.00;99384.91;6152985;23;20385;-72
2022/09/29 01:44:42;;;;;;;4.00;3.80;;;;;;;4.42;100.00;99378.72;6123071;23;20087;-73
2022/09/29 01:47:19;;;;;;;3.90;3.70;;;;;;;5.16;100.00;99506.78;6092417;23;21484;-73
2022/09/29 01:49:53;;;;;;;3.90;3.70;;;;;;;5.13;100.00;99519.94;6153015;23;20037;-73
2022/09/29 01:52:24;;;;;;;4.28;4.07;;;;;;;3.84;100.00;99317.41;6124692;23;20075;-73
2022/09/29 01:55:00;;;;;;;4.50;4.20;;;;;;;4.82;100.00;99486.78;6156017;23;20525;-73
2022/09/29 01:57:32;;;;;;;3.95;3.75;;;;;;;5.06;100.00;99518.53;6125410;23;20082;-72
2022/09/29 02:00:08;;;;;;;4.35;4.10;;;;;;;5.04;100.00;99522.97;6096888;23;20056;-74
2022/09/29 02:02:44;;;;;;;3.65;3.45;;;;;;;4.72;100.00;99467.34;6148505;23;20591;-72
2022/09/29 02:05:18;;;;;;;3.90;3.72;;;;;;;3.98;100.00;99346.16;6123559;23;20029;-72
2022/09/29 02:07:46;;;;;;;4.32;4.13;;;;;;;4.18;100.00;99389.34;6152073;23;20017;-72
2022/09/29 02:10:24;;;;;;;3.88;3.67;;;;;;;3.77;100.00;99324.66;6094153;23;20032;-72
2022/09/29 02:12:55;;;;;;;3.60;3.50;;;;;;;5.00;100.00;99509.28;6066571;23;20030;-72
2022/09/29 02:15:28;;;;;;;4.20;4.00;;;;;;;4.24;100.00;99414.19;6121652;23;20063;-72
2022/09/29 02:17:57;;;;;;;;;;;;;;;4.99;100.00;99517.16;6096243;23;20759;-73
2022/09/29 02:20:23;;;;;;;3.97;3.78;;;;;;;4.99;100.00;99517.16;6115753;23;19992;-72
2022/09/29 02:22:49;;;;;;;4.57;4.15;;;;;;;4.24;100.00;99412.44;6070284;23;20342;-72
2022/09/29 02:25:18;;;;;;;3.90;3.70;;;;;;;4.09;100.00;99384.56;6109956;23;20037;-72
2022/09/29 02:27:47;;;;;;;8.68;4.38;;;;;;;3.51;100.00;99329.25;6094596;23;20014;-72
2022/09/29 02:30:13;;;;;;;3.85;3.65;;;;;;;4.96;100.00;99548.50;6125407;23;20021;-72
2022/09/29 02:32:39;;;;;;;4.00;3.70;;;;;;;4.96;100.00;99525.09;6094465;23;20030;-72
2022/09/29 02:35:10;;;;;;;4.32;4.13;;;;;;;4.42;100.00;99433.25;6119382;23;20496;-72
2022/09/29 02:37:53;;;;;;;3.72;3.53;;;;;;;4.36;100.00;99424.00;6094849;23;20083;-74
2022/09/29 02:40:32;;;;;;;4.18;3.97;;;;;;;4.91;100.00;99517.53;6120925;23;20017;-73
2022/09/29 02:43:04;;;;;;;4.07;3.88;;;;;;;4.87;100.00;99512.53;6093766;23;20025;-73
2022/09/29 02:45:37;;;;;;;4.20;3.95;;;;;;;4.84;100.00;99516.13;6059400;23;20128;-73
2022/09/29 02:48:22;;;;;;;4.35;4.15;;;;;;;4.80;100.00;99510.22;6124999;23;20005;-72
2022/09/29 02:51:07;;;;;;;4.20;3.80;;;;;;;2.79;100.00;99242.56;6097429;23;20127;-73
2022/09/29 02:53:51;;;;;;;4.32;3.95;;;;;;;4.73;100.00;99515.78;6131400;23;20022;-73
2022/09/29 02:56:26;;;;;;;4.80;4.07;;;;;;;4.69;100.00;99516.84;6096823;23;20099;-73
2022/09/29 02:58:58;;;;;;;4.57;4.30;;;;;;;4.49;100.00;99492.66;6128508;23;20018;-72
2022/09/29 03:01:24;;;;;;;3.75;3.50;;;;;;;3.93;100.00;99421.63;6093390;23;20044;-73
2022/09/29 03:03:51;;;;;;;3.60;3.50;;;;;;;4.36;100.00;99479.38;6126456;23;20037;-73
2022/09/29 03:06:20;;;;;;;4.28;4.03;;;;;;;0.59;100.00;98925.91;6094495;23;20759;-72
2022/09/29 03:08:46;;;;;;;3.80;3.60;;;;;;;3.03;100.00;99280.41;6129727;23;20037;-73
2022/09/29 03:11:12;;;;;;;3.90;3.70;;;;;;;4.38;100.00;99498.31;6092950;23;20022;-73
2022/09/29 03:13:39;;;;;;;3.45;3.28;;;;;;;3.96;100.00;99452.63;6059967;23;20094;-73
2022/09/29 03:16:05;;;;;;;4.00;3.80;;;;;;;3.81;100.00;99417.00;6121901;23;20010;-73
2022/09/29 03:18:32;;;;;;;4.00;3.70;;;;;;;4.17;100.00;99483.75;6071377;23;20166;-73
2022/09/29 03:20:58;;;;;;;3.53;3.40;;;;;;;2.38;100.00;99192.56;6121645;23;20024;-73
2022/09/29 03:23:25;;;;;;;4.57;4.30;;;;;;;4.27;100.00;99513.56;6075126;23;20075;-73
2022/09/29 03:25:51;;;;;;;3.70;3.55;;;;;;;2.69;100.00;99308.63;6116470;23;20649;-73
2022/09/29 03:28:17;;;;;;;3.60;3.50;;;;;;;3.08;100.00;99325.13;6096966;23;20657;-72
2022/09/29 03:30:44;;;;;;;3.60;3.50;;;;;;;3.08;100.00;99333.75;6096185;23;20087;-73
2022/09/29 03:33:11;;;;;;;3.67;3.47;;;;;;;4.23;100.00;99527.63;6068195;23;20034;-73
2022/09/29 03:35:37;;;;;;;3.30;3.20;;;;;;;3.20;100.00;99345.31;6120628;23;20509;-72
2022/09/29 03:38:09;;;;;;;3.63;3.47;;;;;;;4.14;100.00;99546.19;6092742;23;20459;-73
2022/09/29 03:40:36;;;;;;;3.70;3.50;;;;;;;3.84;100.00;99497.31;6094920;23;20076;-73
2022/09/29 03:43:02;;;;;;;3.90;3.60;;;;;;;3.79;100.00;99458.59;6096006;23;20014;-72
2022/09/29 03:45:28;;;;;;;3.90;3.70;;;;;;;3.34;100.00;99370.66;6069588;23;20021;-73
2022/09/29 03:47:55;;;;;;;3.47;3.38;;;;;;;3.40;100.00;99358.25;6093998;23;20088;-72
2022/09/29 03:50:21;;;;;;;4.05;3.85;;;;;;;3.35;100.00;99338.66;6101971;23;20061;-72
2022/09/29 03:52:48;;;;;;;4.07;3.88;;;;;;;3.53;100.00;99365.50;6091552;23;20392;-72
2022/09/29 03:55:14;;;;;;;3.67;3.47;;;;;;;3.46;100.00;99346.78;6104115;23;20013;-73
2022/09/29 03:57:40;;;;;;;4.05;3.75;;;;;;;4.50;100.00;99512.50;6091564;23;20013;-73
2022/09/29 04:00:08;;;;;;;3.50;3.40;;;;;;;3.58;100.00;99386.88;6061291;23;20155;-73
2022/09/29 04:02:34;;;;;;;3.80;3.60;;;;;;;1.16;100.00;99042.44;6108374;23;20020;-73
2022/09/29 04:05:01;;;;;;;3.75;3.55;;;;;;;4.54;100.00;99527.03;6095044;23;20037;-72
2022/09/29 04:07:27;;;;;;;3.63;3.42;;;;;;;3.48;100.00;99367.47;6118380;23;20098;-73
2022/09/29 04:09:53;;;;;;;3.60;3.50;;;;;;;4.34;100.00;99521.94;6072110;23;20006;-73
2022/09/29 04:12:20;;;;;;;4.03;3.83;;;;;;;4.25;100.00;99540.50;6120687;23;20014;-72
2022/09/29 04:14:46;;;;;;;3.70;3.53;;;;;;;3.85;100.00;99482.56;6121288;23;20035;-72
2022/09/29 04:17:13;;;;;;;3.72;3.53;;;;;;;3.74;100.00;99467.47;6108906;23;20606;-73
2022/09/29 04:19:39;;;;;;;3.70;3.50;;;;;;;3.49;100.00;99429.66;6099905;23;20024;-73
2022/09/29 04:22:06;;;;;;;4.13;3.83;;;;;;;3.37;100.00;99412.88;6101078;23;20083;-73
2022/09/29 04:24:32;;;;;;;3.95;3.75;;;;;;;3.69;100.00;99479.78;6123630;23;20079;-73
2022/09/29 04:26:58;;;;;;;3.78;3.60;;;;;;;3.16;100.00;99393.88;6098487;23;20018;-72
2022/09/29 04:29:25;;;;;;;4.00;3.70;;;;;;;2.57;100.00;99303.97;6134579;23;20034;-72
2022/09/29 04:31:51;;;;;;;4.10;3.85;;;;;;;3.30;100.00;99455.50;6074141;23;20084;-71
2022/09/29 04:34:17;;;;;;;4.00;3.80;;;;;;;3.84;100.00;99525.00;6130341;23;20042;-73
2022/09/29 04:36:44;;;;;;;3.70;3.50;;;;;;;3.92;100.00;99575.66;6118692;23;20014;-72
2022/09/29 04:39:11;;;;;;;3.40;3.20;;;;;;;3.63;100.00;99511.19;6124728;23;20033;-72
2022/09/29 04:41:38;;;;;;;3.47;3.28;;;;;;;3.72;100.00;99527.22;6098807;23;20618;-72
2022/09/29 04:44:05;;;;;;;3.70;3.50;;;;;;;3.31;100.00;99456.38;6125528;23;20021;-73
2022/09/29 04:46:31;;;;;;;3.75;3.55;;;;;;;3.50;100.00;99485.78;6121995;23;20033;-73
2022/09/29 04:48:57;;;;;;;3.60;3.40;;;;;;;3.55;100.00;99475.22;6129959;23;20041;-73
2022/09/29 04:51:24;;;;;;;4.10;3.90;;;;;;;2.92;100.00;99356.03;6072074;23;20605;-72
2022/09/29 04:53:52;;;;;;;4.30;4.00;;;;;;;3.72;100.00;99472.72;6138326;23;20036;-72
2022/09/29 04:56:18;;;;;;;4.15;3.95;;;;;;;4.23;100.00;99544.94;6098208;23;20022;-72
2022/09/29 04:58:45;;;;;;;3.90;3.70;;;;;;;4.26;100.00;99550.00;6126921;23;20033;-74
2022/09/29 05:01:12;;;;;;;3.72;3.53;;;;;;;2.84;100.00;99321.84;6098375;23;20010;-72
2022/09/29 05:03:40;;;;;;;3.40;3.20;;;;;;;3.38;100.00;99418.88;6122618;23;20024;-71
2022/09/29 05:06:08;;;;;;;3.40;3.30;;;;;;;3.49;100.00;99414.09;6120935;23;20025;-73
2022/09/29 05:08:35;;;;;;;4.00;3.80;;;;;;;3.49;100.00;99424.47;6129903;23;20025;-73
2022/09/29 05:11:06;;;;;;;4.70;4.40;;;;;;;4.24;100.00;99565.66;6097222;23;20043;-73
2022/09/29 05:13:33;;;;;;;4.55;4.25;;;;;;;3.19;100.00;99400.69;6128682;23;20025;-74
2022/09/29 05:16:00;;;;;;;4.00;3.70;;;;;;;3.98;100.00;99512.28;6102446;23;20014;-73
2022/09/29 05:18:26;;;;;;;3.83;3.63;;;;;;;4.10;100.00;99558.47;6126510;23;20020;-71
2022/09/29 05:20:53;;;;;;;4.07;3.80;;;;;;;3.81;100.00;99520.81;6075692;23;20767;-71
2022/09/29 05:23:41;;;;;;;3.50;3.40;;;;;;;3.76;100.00;99497.63;6134462;23;20032;-72
2022/09/29 05:26:09;;;;;;;4.05;3.85;;;;;;;3.06;100.00;99397.75;6092470;23;20010;-73
2022/09/29 05:28:37;;;;;;;4.07;3.80;;;;;;;3.34;100.00;99438.06;6124056;23;20033;-72
2022/09/29 05:31:07;;;;;;;3.70;3.50;;;;;;;3.97;100.00;99529.59;6071825;23;20042;-74
2022/09/29 05:33:35;;;;;;;3.75;3.55;;;;;;;2.17;100.00;99248.66;6151599;23;20084;-74
2022/09/29 05:36:09;;;;;;;3.80;3.65;;;;;;;3.44;100.00;99431.59;6094615;23;20071;-73
2022/09/29 05:38:36;;;;;;;3.58;3.40;;;;;;;4.35;100.00;99580.75;6122733;23;20002;-73
2022/09/29 05:41:07;;;;;;;3.90;3.70;;;;;;;3.78;100.00;99477.66;6068467;23;20085;-73
2022/09/29 05:43:34;;;;;;;3.58;3.40;;;;;;;4.13;100.00;99552.28;6168311;23;20066;-73
2022/09/29 05:46:04;;;;;;;4.13;3.90;;;;;;;4.42;100.00;99581.31;6071624;23;20656;-73
2022/09/29 05:48:31;;;;;;;4.47;4.18;;;;;;;4.27;100.00;99554.25;6127288;23;20100;-73
2022/09/29 05:50:59;;;;;;;3.58;3.38;;;;;;;3.86;100.00;99502.44;6068474;23;20080;-73
2022/09/29 05:53:25;;;;;;;3.50;3.40;;;;;;;4.46;100.00;99580.28;6124074;23;20650;-72
2022/09/29 05:55:52;;;;;;;3.50;3.40;;;;;;;3.58;100.00;99442.19;6097403;23;20045;-73
2022/09/29 05:58:18;;;;;;;3.35;3.22;;;;;;;4.04;100.00;99511.16;6127795;23;20163;-75
2022/09/29 06:00:44;;;;;;;4.20;3.92;;;;;;;4.54;100.00;99588.56;6096254;23;20041;-73
2022/09/29 06:03:11;;;;;;;3.85;3.65;;;;;;;3.67;100.00;99453.94;6122206;23;20028;-72
2022/09/29 06:05:39;;;;;;;3.80;3.60;;;;;;;4.33;100.00;99543.59;6097309;23;20416;-73
2022/09/29 06:08:06;;;;;;;3.50;3.40;;;;;;;4.67;100.00;99591.44;6128315;23;20025;-74
2022/09/29 06:10:32;;;;;;;4.07;3.85;;;;;;;3.87;100.00;99458.25;6099562;23;20026;-73
2022/09/29 06:13:02;;;;;;;4.07;3.88;;;;;;;4.20;100.00;99500.00;6067372;23;20011;-75
2022/09/29 06:15:28;;;;;;;5.20;3.78;;;;;;;3.78;100.00;99458.66;6132044;23;20071;-73
2022/09/29 06:17:59;;;;;;;3.80;3.60;;;;;;;3.67;100.00;99402.06;6095017;23;20220;-73
2022/09/29 06:20:26;;;;;;;4.60;4.30;;;;;;;4.29;100.00;99514.34;6134987;23;20012;-73
2022/09/29 06:22:54;;;;;;;4.10;3.90;;;;;;;4.64;100.00;99542.22;6071083;23;20451;-71
2022/09/29 06:25:21;;;;;;;3.97;3.78;;;;;;;4.99;100.00;99590.81;6126575;23;20013;-73
2022/09/29 06:27:47;;;;;;;10.27;4.20;;;;;;;4.32;100.00;99477.84;6116703;23;20076;-72
2022/09/29 06:30:14;;;;;;;4.60;4.30;;;;;;;5.09;100.00;99600.75;6108166;23;20030;-75
2022/09/29 06:32:41;;;;;;;4.97;4.55;;;;;;;4.08;100.00;99417.50;6115376;23;20025;-74
2022/09/29 06:37:55;;;;;;;4.65;4.30;;;;;;;3.86;100.00;99385.66;6065326;23;20564;-73
2022/09/29 06:40:22;;;;;;;3.50;3.40;;;;;;;4.48;100.00;99469.34;6094918;23;20383;-71
2022/09/29 06:42:49;;;;;;;4.90;4.60;;;;;;;4.62;100.00;99479.09;6116669;23;20028;-72
2022/09/29 06:45:15;;;;;;;4.10;3.90;;;;;;;4.65;100.00;99477.19;6090997;23;20081;-73
2022/09/29 06:47:47;;;;;;;4.10;3.90;;;;;;;5.36;100.00;99607.25;6121380;23;20045;-74
2022/09/29 06:50:13;;;;;;;4.78;4.47;;;;;;;5.32;100.00;99584.06;6087596;23;20299;-73
2022/09/29 06:52:51;;;;;;;4.53;4.32;;;;;;;4.88;100.00;99478.69;6118961;23;20030;-74
2022/09/29 06:55:29;;;;;;;4.60;4.28;;;;;;;5.24;100.00;99509.00;6099893;23;20026;-73
2022/09/29 06:57:55;;;;;;;7.32;4.30;;;;;;;3.60;100.00;99300.28;6124691;23;20048;-72
2022/09/29 07:00:30;;;;;;;4.03;3.83;;;;;;;5.10;100.00;99460.25;6107026;23;20455;-72
2022/09/29 07:02:56;;;;;;;4.88;4.47;;;;;;;5.88;100.00;99579.56;6077253;23;20628;-72
2022/09/29 07:05:23;;;;;;;5.00;4.63;;;;;;;5.81;100.00;99521.75;6120713;23;20098;-72
2022/09/29 07:07:49;;;;;;;5.22;4.93;;;;;;;6.48;100.00;99608.63;6071318;23;20033;-74
2022/09/29 07:10:20;;;;;;;4.90;4.60;;;;;;;6.61;100.00;99605.34;6130018;23;20009;-73
2022/09/29 07:12:46;;;;;;;4.88;4.57;;;;;;;6.03;100.00;99510.25;6066249;23;20014;-73
2022/09/29 07:15:13;;;;;;;5.03;4.70;;;;;;;5.76;100.00;99441.28;6122914;23;20047;-74
2022/09/29 07:17:39;;;;;;;4.90;4.60;;;;;;;6.73;100.00;99604.69;6097751;23;20014;-73
2022/09/29 07:20:06;;;;;;;4.10;3.90;;;;;;;6.62;100.00;99549.69;6117124;23;20161;-72
2022/09/29 07:22:32;;;;;;;10.05;5.88;;;;;;;6.39;100.00;99486.59;6079970;23;20033;-73
2022/09/29 07:24:59;;;;;;;4.93;4.53;;;;;;;6.12;100.00;99436.84;6120519;23;20369;-73
2022/09/29 07:27:25;;;;;;;4.68;4.47;;;;;;;4.61;100.00;99252.19;6082431;23;20501;-73
2022/09/29 07:29:52;;;;;;;5.15;4.85;;;;;;;7.26;100.00;99613.13;6116462;23;20111;-72
2022/09/29 07:32:31;;;;;;;6.38;5.85;;;;;;;7.44;100.00;99613.81;6066140;23;20034;-72
2022/09/29 07:34:58;;;;;;;5.18;4.85;;;;;;;7.28;100.00;99572.13;6125462;23;20005;-73
2022/09/29 07:37:29;;;;;;;6.28;4.65;;;;;;;7.48;100.00;99590.09;6068979;23;20047;-73
2022/09/29 07:39:55;;;;;;;4.95;4.65;;;;;;;7.17;100.00;99539.63;6129017;23;20025;-72
2022/09/29 07:42:22;;;;;;;4.88;4.68;;;;;;;6.61;100.00;99418.50;6088949;23;20029;-72
2022/09/29 07:44:48;;;;;;;5.72;5.35;;;;;;;6.43;100.00;99385.66;6129456;23;20025;-73
2022/09/29 07:47:18;;;;;;;4.40;4.18;;;;;;;7.91;100.00;99603.25;6090330;23;20063;-73
2022/09/29 07:49:44;;;;;;;6.13;4.65;;;;;;;8.12;100.00;99619.47;6124240;23;20037;-73
2022/09/29 07:52:12;;;;;;;5.43;5.10;;;;;;;6.88;100.00;99413.50;6090412;23;20032;-73
2022/09/29 07:54:38;;;;;;;5.20;4.90;;;;;;;8.28;100.00;99624.63;6065132;23;20026;-73
2022/09/29 07:57:04;;;;;;;5.22;4.88;;;;;;;7.37;100.00;99477.63;6119531;23;20028;-73
2022/09/29 07:59:31;;;;;;;6.35;5.93;;;;;;;8.39;100.00;99630.03;6069112;23;20162;-73
2022/09/29 08:01:57;;;;;;;5.68;5.13;;;;;;;8.40;100.00;99638.72;6121152;23;20257;-74
2022/09/29 08:04:24;;;;;;;6.47;5.93;;;;;;;7.92;100.00;99563.16;6092819;23;20032;-73
2022/09/29 08:06:50;;;;;;;6.78;6.22;;;;;;;7.47;100.00;99490.97;6142190;23;20090;-73
2022/09/29 08:09:16;;;;;;;6.57;6.07;;;;;;;7.77;100.00;99527.50;6094759;23;20036;-73
2022/09/29 08:11:43;;;;;;;6.82;6.15;;;;;;;7.77;100.00;99577.13;6069019;23;20238;-73
2022/09/29 08:14:13;;;;;;;5.90;5.50;;;;;;;8.68;100.00;99653.63;6128286;23;20021;-73
2022/09/29 08:16:39;;;;;;;5.47;4.95;;;;;;;8.75;100.00;99649.66;6098901;23;20025;-74
2022/09/29 08:19:06;;;;;;;5.55;5.15;;;;;;;8.90;100.00;99653.13;6125715;23;20020;-73
2022/09/29 08:21:36;;;;;;;9.13;6.95;;;;;;;9.04;100.00;99656.66;6095723;23;20197;-74
2022/09/29 08:24:04;;;;;;;14.52;5.97;;;;;;;8.05;100.00;99499.72;6120980;23;20084;-73
2022/09/29 08:26:34;;;;;;;6.05;5.63;;;;;;;9.14;100.00;99661.22;6091872;23;20014;-73
2022/09/29 08:29:10;;;;;;;6.78;5.93;;;;;;;8.99;100.00;99622.91;6118929;23;20203;-73
2022/09/29 08:31:42;;;;;;;7.45;6.40;;;;;;;9.27;100.00;99670.91;6087792;23;20090;-73
2022/09/29 08:34:09;;;;;;;5.57;5.20;;;;;;;9.02;100.00;99603.56;6125647;23;20084;-73
2022/09/29 08:36:35;;;;;;;6.88;6.15;;;;;;;8.63;100.00;99516.22;6082936;23;20017;-73
2022/09/29 08:39:02;;;;;;;6.05;5.57;;;;;;;8.81;100.00;99537.75;6118770;23;20088;-73
2022/09/29 08:42:06;;;;;;;5.60;5.10;;;;;;;9.71;100.00;99675.91;6089738;23;20014;-74
2022/09/29 08:45:01;;;;;;;5.63;5.18;;;;;;;9.71;100.00;99675.09;6150630;23;20112;-73
2022/09/29 08:47:45;;;;;;;8.20;5.18;;;;;;;9.62;100.00;99659.94;6092508;23;20091;-73
2022/09/29 08:50:34;;;;;;;6.82;6.18;;;;;;;10.02;100.00;99681.75;6129345;23;20013;-73
2022/09/29 08:53:07;;;;;;;8.90;6.75;;;;;;;9.71;100.00;99625.31;6101685;23;20019;-74
2022/09/29 08:55:56;;;;;;;6.35;5.85;;;;;;;9.91;100.00;99624.00;6123322;23;20037;-73
2022/09/29 08:58:23;;;;;;;6.05;5.60;;;;;;;10.26;100.00;99688.94;6093388;23;20610;-73
2022/09/29 09:01:01;;;;;;;6.38;5.90;;;;;;;10.35;100.00;99686.56;6121153;23;20017;-73
2022/09/29 09:03:41;;;;;;;7.45;6.82;;;;;;;10.55;100.00;99679.13;6093653;23;20022;-73
2022/09/29 09:06:27;;;;;;;6.20;5.80;;;;;;;10.73;100.00;99688.38;6122957;23;20022;-73
2022/09/29 09:09:06;;;;;;;7.20;6.57;;;;;;;10.90;100.00;99681.09;6100506;23;20264;-73
2022/09/29 09:11:40;;;;;;;6.88;6.32;;;;;;;10.48;100.00;99614.91;6112869;23;20029;-73
2022/09/29 09:14:22;;;;;;;6.80;6.30;;;;;;;10.79;100.00;99666.09;6062157;23;20157;-74
2022/09/29 09:17:04;;;;;;;7.40;6.70;;;;;;;10.14;100.00;99531.53;6094654;23;20071;-73
2022/09/29 09:19:46;;;;;;;7.70;6.05;;;;;;;11.13;100.00;99690.00;6097447;23;20028;-74
2022/09/29 09:22:21;;;;;;;7.07;6.57;;;;;;;10.71;100.00;99624.66;6123659;23;20029;-74
2022/09/29 09:25:04;;;;;;;10.35;7.13;;;;;;;11.07;100.00;99688.63;6093706;23;20022;-73
2022/09/29 09:27:39;;;;;;;8.27;7.45;;;;;;;11.26;100.00;99698.66;6123018;23;20048;-73
2022/09/29 09:30:12;;;;;;;9.15;8.25;;;;;;;10.71;100.00;99611.53;6095072;23;20037;-75
2022/09/29 09:32:47;;;;;;;8.20;7.55;;;;;;;10.53;100.00;99552.50;6118192;23;20018;-74
2022/09/29 09:35:31;;;;;;;8.02;7.35;;;;;;;11.49;100.00;99689.16;6085918;23;20025;-73
2022/09/29 09:38:03;;;;;;;8.88;7.15;;;;;;;10.84;100.00;99582.63;6124713;23;20025;-74
2022/09/29 09:40:40;;;;;;;7.25;6.55;;;;;;;10.68;100.00;99559.25;6097140;23;20022;-73
2022/09/29 09:43:17;;;;;;;7.65;6.97;;;;;;;11.24;100.00;99618.31;6123234;23;20039;-73
2022/09/29 09:45:55;;;;;;;7.45;6.60;;;;;;;12.00;100.00;99698.63;6091525;23;20037;-72
2022/09/29 09:48:32;;;;;;;7.82;7.13;;;;;;;11.33;100.00;99576.47;6122005;23;20502;-74
2022/09/29 09:51:09;;;;;;;9.60;8.52;;;;;;;11.05;100.00;99533.00;6096155;23;20012;-73
2022/09/29 09:53:42;;;;;;;14.70;8.63;;;;;;;12.28;100.00;99667.63;6070489;23;20038;-75
2022/09/29 09:56:21;;;;;;;10.07;8.50;;;;;;;12.70;100.00;99704.78;6095121;23;20014;-73
2022/09/29 09:59:09;;;;;;;12.15;10.32;;;;;;;12.42;100.00;99656.06;6091754;23;20022;-75
2022/09/29 10:01:36;;;;;;;12.13;9.68;;;;;;;12.35;100.00;99621.50;6125118;23;20104;-73
2022/09/29 10:04:02;;;;;;;8.07;7.35;;;;;;;12.94;100.00;99699.41;6077785;23;20025;-73
2022/09/29 10:06:29;;;;;;;9.05;8.23;;;;;;;13.21;100.00;99708.72;6125570;23;20686;-73
2022/09/29 10:08:55;;;;;;;12.65;8.98;;;;;;;13.11;100.00;99703.31;6092550;23;20014;-73
2022/09/29 10:11:25;;;;;;;11.60;10.40;;;;;;;13.04;100.00;99700.34;6067710;23;20030;-74
2022/09/29 10:14:20;;;;;;;12.52;9.35;;;;;;;12.71;100.00;99698.56;6085983;23;20724;-72
2022/09/29 10:16:53;;;;;;;13.05;10.10;;;;;;;12.73;100.00;99672.97;6058701;23;20032;-73
2022/09/29 10:19:22;;;;;;;11.13;9.85;;;;;;;13.11;100.00;99706.81;6091260;23;20689;-73
2022/09/29 10:21:49;;;;;;;11.73;8.13;;;;;;;12.97;100.00;99639.44;6065671;23;20056;-72
2022/09/29 10:24:32;;;;;;;11.82;9.70;;;;;;;13.49;98.98;99699.47;6091641;23;21604;-72
2022/09/29 10:27:00;;;;;;;11.68;9.07;;;;;;;12.98;97.49;99606.03;6043847;23;20076;-73
2022/09/29 10:29:38;;;;;;;13.60;8.18;;;;;;;13.83;96.29;99712.56;6100697;23;20066;-72
2022/09/29 10:32:21;;;;;;;12.38;8.25;;;;;;;13.78;93.86;99715.59;6064313;23;20084;-72
2022/09/29 10:34:53;;;;;;;13.32;10.13;;;;;;;13.43;94.62;99710.50;6094251;23;20029;-72
2022/09/29 10:37:27;;;;;;;10.55;8.50;;;;;;;13.55;93.94;99714.81;6067487;23;20083;-72
2022/09/29 10:40:11;;;;;;;10.60;9.07;;;;;;;13.35;95.37;99701.44;6103372;23;20036;-73
2022/09/29 10:42:39;;;;;;;11.77;8.80;;;;;;;13.20;95.86;99673.63;6069190;23;20099;-72
2022/09/29 10:45:06;;;;;;;9.15;8.15;;;;;;;13.59;92.73;99723.31;6082887;23;20827;-72
2022/09/29 10:47:33;;;;;;;8.73;7.93;;;;;;;13.73;91.63;99723.88;6068624;23;20022;-73
2022/09/29 10:50:16;;;;;;;11.38;9.32;;;;;;;13.97;89.91;99728.09;6098322;23;20017;-75
2022/09/29 10:52:49;;;;;;;11.00;8.63;;;;;;;13.01;88.24;99558.38;6061927;23;20014;-73
2022/09/29 10:55:21;;;;;;;11.40;8.38;;;;;;;14.49;87.27;99731.72;6098241;23;20155;-73
2022/09/29 10:57:50;;;;;;;9.25;8.45;;;;;;;14.19;83.57;99677.03;6065377;23;20101;-72
2022/09/29 11:00:30;;;;;;;7.60;6.97;;;;;;;14.55;85.04;99725.91;6096263;23;20017;-73
2022/09/29 11:03:21;;;;;;;12.07;7.60;;;;;;;14.58;81.52;99727.50;6072561;23;20075;-73
2022/09/29 11:05:53;;;;;;;10.48;8.25;;;;;;;14.38;83.21;99741.50;6092103;23;20022;-72
2022/09/29 11:08:24;;;;;;;11.23;8.07;;;;;;;13.88;84.54;99734.16;6076400;23;20022;-73
2022/09/29 11:11:20;;;;;;;17.33;8.80;;;;;;;13.40;87.76;99706.34;6113852;23;20714;-73
2022/09/29 11:13:48;;;;;;;11.30;7.88;;;;;;;13.67;89.40;99740.19;6127012;23;20013;-72
2022/09/29 11:16:17;;;;;;;8.40;7.53;;;;;;;13.66;85.88;99738.50;6098703;23;20600;-73
2022/09/29 11:18:48;;;;;;;12.52;7.13;;;;;;;13.57;85.36;99742.72;6121876;23;20036;-72
2022/09/29 11:21:20;;;;;;;7.63;6.97;;;;;;;13.57;85.11;99739.28;6090227;23;20061;-72
2022/09/29 11:24:02;;;;;;;7.53;6.82;;;;;;;13.02;85.87;99685.63;6087155;23;20030;-71
2022/09/29 11:26:50;;;;;;;9.88;8.25;;;;;;;13.36;83.60;99747.91;6094377;23;20562;-72
2022/09/29 11:29:54;;;;;;;8.45;7.65;;;;;;;13.43;83.74;99748.28;6083383;23;20083;-72
2022/09/29 11:32:41;;;;;;;12.13;10.70;;;;;;;13.48;83.31;99751.38;6115619;23;20025;-72
2022/09/29 11:35:26;;;;;;;7.28;6.63;;;;;;;13.46;84.31;99749.81;6110555;23;20057;-71
2022/09/29 11:38:01;;;;;;;9.85;8.85;;;;;;;13.65;83.79;99757.94;6117377;23;20037;-72
2022/09/29 11:40:50;;;;;;;7.88;7.15;;;;;;;13.45;84.03;99756.03;6115429;23;20264;-73
2022/09/29 11:43:33;;;;;;;8.65;7.72;;;;;;;13.57;85.97;99750.66;6117362;23;20021;-72
2022/09/29 11:46:22;;;;;;;15.13;7.47;;;;;;;13.69;81.46;99753.22;6048026;23;20082;-72
2022/09/29 11:49:09;;;;;;;12.90;8.13;;;;;;;13.65;81.22;99759.72;6127585;23;20075;-72
2022/09/29 11:51:54;;;;;;;12.95;7.60;;;;;;;13.50;80.92;99762.63;6086950;23;20457;-72
2022/09/29 11:54:38;;;;;;;10.52;8.52;;;;;;;13.57;83.25;99763.81;6117787;23;20018;-72